Time;durP1;ratioP1;P1;durP2;ratioP2;P2;SDS_P1;SDS_P2;PMS_P1;PMS_P2;Temp;Humidity;BMP_temperature;BMP_pressure;BME280_temperature;BME280_humidity;BME280_pressure;Samples;Min_cycle;Max_cycle;Signal;HPM_P1;HPM_P2
2022/04/01 00:01:43;;;;;;;17.55;9.43;;;;;;;;;;6266246;28;20036;-61
2022/04/01 00:04:44;;;;;;;16.95;10.02;;;;;;;;;;6262942;28;20053;-60
2022/04/01 00:07:45;;;;;;;18.20;9.20;;;;;;;;;;6263912;28;20060;-60
2022/04/01 00:10:46;;;;;;;16.45;8.82;;;;;;;;;;6264524;28;20103;-61
2022/04/01 00:13:46;;;;;;;16.02;9.10;;;;;;;;;;6265245;28;20112;-60
2022/04/01 00:16:47;;;;;;;15.10;8.23;;;;;;;;;;6265561;28;20139;-60
2022/04/01 00:19:48;;;;;;;13.82;8.63;;;;;;;;;;6266100;28;20141;-60
2022/04/01 00:22:49;;;;;;;16.77;8.98;;;;;;;;;;6265530;28;20055;-60
2022/04/01 00:25:50;;;;;;;16.85;8.75;;;;;;;;;;6263740;28;20053;-60
2022/04/01 00:28:50;;;;;;;17.63;9.30;;;;;;;;;;6262540;28;20136;-60
2022/04/01 00:31:59;;;;;;;18.60;9.98;;;;;;;;;;6263218;28;20048;-61
2022/04/01 00:35:00;;;;;;;15.70;8.73;;;;;;;;;;6265088;28;20068;-61
2022/04/01 00:38:01;;;;;;;15.05;8.35;;;;;;;;;;6260878;28;20553;-61
2022/04/01 00:41:02;;;;;;;17.00;8.95;;;;;;;;;;6264163;28;20100;-60
2022/04/01 00:44:13;;;;;;;18.15;9.23;;;;;;;;;;6265060;28;20416;-60
2022/04/01 00:47:15;;;;;;;19.15;9.82;;;;;;;;;;6260846;28;20057;-60
2022/04/01 00:50:15;;;;;;;18.63;9.80;;;;;;;;;;6265199;28;20053;-60
2022/04/01 00:53:21;;;;;;;17.17;9.43;;;;;;;;;;6263476;28;21954;-60
2022/04/01 00:56:23;;;;;;;19.08;9.55;;;;;;;;;;6261859;28;20053;-61
2022/04/01 00:59:27;;;;;;;17.13;9.20;;;;;;;;;;6263395;28;20135;-61
2022/04/01 01:02:27;;;;;;;17.58;10.00;;;;;;;;;;6265240;28;20068;-61
2022/04/01 01:05:30;;;;;;;17.30;10.15;;;;;;;;;;6265137;28;20514;-61
2022/04/01 01:08:31;;;;;;;19.25;10.23;;;;;;;;;;6260953;28;20110;-60
2022/04/01 01:11:32;;;;;;;17.90;10.07;;;;;;;;;;6263334;28;20044;-60
2022/04/01 01:14:36;;;;;;;16.33;9.40;;;;;;;;;;6262503;28;20041;-60
2022/04/01 01:17:40;;;;;;;15.80;9.07;;;;;;;;;;6259891;28;20053;-61
2022/04/01 01:20:42;;;;;;;17.73;10.90;;;;;;;;;;6259617;28;20401;-61
2022/04/01 01:23:42;;;;;;;16.37;9.27;;;;;;;;;;6263033;28;20044;-61
2022/04/01 01:26:50;;;;;;;17.05;9.00;;;;;;;;;;6261548;28;20103;-61
2022/04/01 01:29:51;;;;;;;15.55;9.40;;;;;;;;;;6261133;28;20415;-61
2022/04/01 01:32:51;;;;;;;16.75;9.80;;;;;;;;;;6265825;28;20060;-61
2022/04/01 01:35:52;;;;;;;18.45;10.45;;;;;;;;;;6264965;28;20112;-60
2022/04/01 01:38:53;;;;;;;32.08;13.65;;;;;;;;;;6263234;28;20478;-61
2022/04/01 01:41:54;;;;;;;48.90;19.13;;;;;;;;;;6265764;28;20051;-60
2022/04/01 01:44:55;;;;;;;29.45;12.43;;;;;;;;;;6264278;28;20620;-61
2022/04/01 01:47:56;;;;;;;19.33;10.00;;;;;;;;;;6264100;28;20051;-61
2022/04/01 01:57:36;;;;;;;17.90;10.18;;;;;;;;;;6264279;28;20052;-61
2022/04/01 02:00:36;;;;;;;20.35;10.07;;;;;;;;;;6262692;28;20088;-61
2022/04/01 02:03:37;;;;;;;16.13;9.55;;;;;;;;;;6264836;28;20097;-60
2022/04/01 02:06:38;;;;;;;17.80;9.82;;;;;;;;;;6264898;28;20059;-61
2022/04/01 02:09:46;;;;;;;16.70;9.55;;;;;;;;;;6262454;28;20503;-60
2022/04/01 02:12:47;;;;;;;17.15;9.90;;;;;;;;;;6261593;28;20111;-61
2022/04/01 02:15:47;;;;;;;18.02;9.80;;;;;;;;;;6263993;28;20122;-61
2022/04/01 02:18:49;;;;;;;21.58;11.52;;;;;;;;;;6264104;28;20653;-61
2022/04/01 02:21:51;;;;;;;20.25;10.70;;;;;;;;;;6260810;28;20477;-60
2022/04/01 02:24:53;;;;;;;20.08;10.52;;;;;;;;;;6263591;28;20407;-61
2022/04/01 02:27:55;;;;;;;;;;;;;;;;;;6265088;28;20096;-61
2022/04/01 02:30:55;;;;;;;22.58;12.13;;;;;;;;;;6260929;28;21652;-61
2022/04/01 02:33:56;;;;;;;21.15;11.52;;;;;;;;;;6262172;28;20041;-61
2022/04/01 02:36:58;;;;;;;26.00;13.88;;;;;;;;;;6262509;28;20045;-61
2022/04/01 02:39:59;;;;;;;27.13;14.57;;;;;;;;;;6262787;28;20052;-61
2022/04/01 02:43:00;;;;;;;31.45;16.77;;;;;;;;;;6262948;28;20135;-61
2022/04/01 02:46:02;;;;;;;32.50;16.52;;;;;;;;;;6263325;28;20041;-60
2022/04/01 02:49:06;;;;;;;41.20;19.95;;;;;;;;;;6262653;28;20053;-61
2022/04/01 02:52:07;;;;;;;36.67;18.95;;;;;;;;;;6261825;28;20130;-60
2022/04/01 02:55:08;;;;;;;30.17;17.05;;;;;;;;;;6264724;28;20124;-61
2022/04/01 02:58:09;;;;;;;36.30;17.73;;;;;;;;;;6267095;28;20056;-61
2022/04/01 03:01:10;;;;;;;32.67;17.35;;;;;;;;;;6264485;28;20056;-60
2022/04/01 03:04:11;;;;;;;33.25;18.65;;;;;;;;;;6269145;28;20053;-61
2022/04/01 03:07:11;;;;;;;31.42;17.58;;;;;;;;;;6267173;28;20056;-61
2022/04/01 03:10:12;;;;;;;30.80;17.65;;;;;;;;;;6266875;28;20045;-61
2022/04/01 03:13:13;;;;;;;34.00;18.30;;;;;;;;;;6268914;28;20077;-61
2022/04/01 03:16:13;;;;;;;33.53;17.90;;;;;;;;;;6266801;28;20075;-60
2022/04/01 03:19:16;;;;;;;32.67;17.95;;;;;;;;;;6266823;28;20072;-61
2022/04/01 03:22:17;;;;;;;34.28;18.63;;;;;;;;;;6263206;28;20130;-61
2022/04/01 03:25:19;;;;;;;32.88;17.58;;;;;;;;;;6265168;28;20045;-61
2022/04/01 03:28:19;;;;;;;29.63;16.30;;;;;;;;;;6266866;28;20080;-61
2022/04/01 03:31:20;;;;;;;32.50;18.05;;;;;;;;;;6266624;28;20057;-61
2022/04/01 03:34:22;;;;;;;32.40;17.63;;;;;;;;;;6266039;28;20079;-60
2022/04/01 03:37:22;;;;;;;33.93;17.70;;;;;;;;;;6268284;28;20095;-60
2022/04/01 03:40:25;;;;;;;35.50;17.08;;;;;;;;;;6267144;28;20092;-61
2022/04/01 03:43:25;;;;;;;34.90;17.90;;;;;;;;;;6266938;28;20407;-60
2022/04/01 03:46:40;;;;;;;34.05;17.95;;;;;;;;;;6267111;28;20076;-61
2022/04/01 03:49:54;;;;;;;33.42;16.88;;;;;;;;;;6268266;28;20183;-61
2022/04/01 03:53:04;;;;;;;39.03;18.67;;;;;;;;;;6264847;28;20088;-61
2022/04/01 03:56:06;;;;;;;42.78;19.98;;;;;;;;;;6267236;28;20052;-61
2022/04/01 03:59:09;;;;;;;37.03;19.08;;;;;;;;;;6265105;28;20621;-61
2022/04/01 04:02:12;;;;;;;39.30;19.60;;;;;;;;;;6263307;28;20468;-60
2022/04/01 04:05:13;;;;;;;33.30;17.52;;;;;;;;;;6264172;28;20094;-61
2022/04/01 04:08:18;;;;;;;34.40;18.25;;;;;;;;;;6260387;28;20048;-61
2022/04/01 04:11:23;;;;;;;32.10;18.05;;;;;;;;;;6264225;28;20049;-61
2022/04/01 04:14:27;;;;;;;43.55;20.15;;;;;;;;;;6263422;28;20041;-62
2022/04/01 04:17:46;;;;;;;37.38;17.52;;;;;;;;;;6266704;28;20077;-63
2022/04/01 04:21:12;;;;;;;37.70;18.10;;;;;;;;;;6266614;28;20056;-62
2022/04/01 04:24:29;;;;;;;34.30;18.02;;;;;;;;;;6265305;28;20076;-62
2022/04/01 04:27:30;;;;;;;40.47;16.98;;;;;;;;;;6263134;28;20518;-62
2022/04/01 04:30:33;;;;;;;31.17;16.42;;;;;;;;;;6264882;28;20040;-61
2022/04/01 04:33:41;;;;;;;32.40;14.43;;;;;;;;;;6265075;28;20049;-62
2022/04/01 04:36:43;;;;;;;37.20;18.00;;;;;;;;;;6263154;28;20477;-62
2022/04/01 04:39:43;;;;;;;32.92;16.73;;;;;;;;;;6263671;28;20048;-62
2022/04/01 04:42:46;;;;;;;35.30;18.48;;;;;;;;;;6258831;28;20458;-62
2022/04/01 04:45:49;;;;;;;39.75;18.58;;;;;;;;;;6265693;28;20049;-61
2022/04/01 04:48:50;;;;;;;39.58;18.70;;;;;;;;;;6261629;28;20279;-62
2022/04/01 04:51:52;;;;;;;36.33;19.52;;;;;;;;;;6261751;28;20088;-63
2022/04/01 04:54:55;;;;;;;35.38;19.98;;;;;;;;;;6263798;28;20490;-61
2022/04/01 04:57:55;;;;;;;37.08;18.70;;;;;;;;;;6261905;28;20063;-62
2022/04/01 05:01:02;;;;;;;32.55;17.88;;;;;;;;;;6261154;28;20429;-62
2022/04/01 05:04:17;;;;;;;28.70;16.08;;;;;;;;;;6254480;28;20515;-62
2022/04/01 05:07:30;;;;;;;30.88;16.45;;;;;;;;;;6263022;28;20049;-62
2022/04/01 05:10:38;;;;;;;33.40;16.35;;;;;;;;;;6261874;28;20450;-62
2022/04/01 05:13:51;;;;;;;30.65;16.30;;;;;;;;;;6263565;28;20450;-63
2022/04/01 05:17:01;;;;;;;30.05;15.50;;;;;;;;;;6261979;28;20060;-62
2022/04/01 05:20:11;;;;;;;33.05;17.50;;;;;;;;;;6255943;28;20500;-62
2022/04/01 05:23:20;;;;;;;34.00;16.95;;;;;;;;;;6254972;28;20048;-62
2022/04/01 05:26:25;;;;;;;34.38;17.75;;;;;;;;;;6265793;28;20166;-62
2022/04/01 05:29:31;;;;;;;36.33;17.77;;;;;;;;;;6265052;28;20056;-60
2022/04/01 05:32:38;;;;;;;31.85;17.25;;;;;;;;;;6253813;28;20093;-62
2022/04/01 05:35:41;;;;;;;29.98;16.80;;;;;;;;;;6265501;28;20087;-60
2022/04/01 05:38:43;;;;;;;33.28;17.50;;;;;;;;;;6264316;28;20063;-60
2022/04/01 05:41:45;;;;;;;31.10;15.65;;;;;;;;;;6264180;28;20144;-60
2022/04/01 05:44:47;;;;;;;31.38;16.98;;;;;;;;;;6261635;28;20068;-62
2022/04/01 05:47:48;;;;;;;32.95;16.20;;;;;;;;;;6263445;28;20060;-63
2022/04/01 05:50:50;;;;;;;31.55;17.63;;;;;;;;;;6261169;28;20140;-60
2022/04/01 05:53:52;;;;;;;33.38;18.10;;;;;;;;;;6263343;28;20045;-60
2022/04/01 05:56:53;;;;;;;31.48;16.85;;;;;;;;;;6263917;28;20514;-63
2022/04/01 05:59:53;;;;;;;33.65;18.38;;;;;;;;;;6263141;28;20041;-62
2022/04/01 06:03:25;;;;;;;35.58;19.75;;;;;;;;;;6262076;28;20041;-63
2022/04/01 06:06:34;;;;;;;37.72;18.70;;;;;;;;;;6256366;28;20055;-61
2022/04/01 06:09:59;;;;;;;38.45;19.52;;;;;;;;;;6263913;28;20434;-62
2022/04/01 06:13:11;;;;;;;33.80;18.90;;;;;;;;;;6259324;28;20056;-63
2022/04/01 06:16:31;;;;;;;27.65;16.55;;;;;;;;;;6255476;28;20049;-62
2022/04/01 06:19:42;;;;;;;30.77;16.83;;;;;;;;;;6262849;28;20049;-62
2022/04/01 06:22:50;;;;;;;32.28;16.95;;;;;;;;;;6255621;28;20044;-62
2022/04/01 06:25:56;;;;;;;32.78;16.38;;;;;;;;;;6260246;28;20051;-62
2022/04/01 06:29:01;;;;;;;30.05;15.80;;;;;;;;;;6259635;28;20041;-62
2022/04/01 06:32:07;;;;;;;31.23;15.65;;;;;;;;;;6267194;28;20052;-61
2022/04/01 06:35:19;;;;;;;31.60;16.48;;;;;;;;;;6264492;28;20049;-61
2022/04/01 06:38:39;;;;;;;34.15;18.98;;;;;;;;;;6265628;28;20080;-60
2022/04/01 06:41:47;;;;;;;33.92;18.52;;;;;;;;;;6264512;28;20055;-60
2022/04/01 06:44:48;;;;;;;47.72;24.10;;;;;;;;;;6262438;28;20064;-60
2022/04/01 06:47:49;;;;;;;39.70;19.80;;;;;;;;;;6266449;28;20049;-62
2022/04/01 06:50:49;;;;;;;38.78;19.70;;;;;;;;;;6264172;28;20132;-62
2022/04/01 06:53:50;;;;;;;35.00;18.50;;;;;;;;;;6264408;28;20065;-62
2022/04/01 06:56:51;;;;;;;38.03;18.17;;;;;;;;;;6263412;28;20049;-62
2022/04/01 06:59:52;;;;;;;29.52;15.95;;;;;;;;;;6265506;28;20051;-62
2022/04/01 07:02:52;;;;;;;28.10;15.68;;;;;;;;;;6267270;28;20053;-63
2022/04/01 07:05:53;;;;;;;27.80;14.32;;;;;;;;;;6267927;28;20091;-60
2022/04/01 07:08:54;;;;;;;26.95;14.63;;;;;;;;;;6267827;28;20486;-62
2022/04/01 07:11:57;;;;;;;31.77;17.33;;;;;;;;;;6265887;28;20648;-61
2022/04/01 07:14:58;;;;;;;35.80;21.30;;;;;;;;;;6262269;28;20393;-61
2022/04/01 07:17:59;;;;;;;51.25;24.08;;;;;;;;;;6267749;28;20140;-63
2022/04/01 07:21:00;;;;;;;72.05;28.08;;;;;;;;;;6265634;28;20052;-62
2022/04/01 07:24:02;;;;;;;42.42;22.10;;;;;;;;;;6265509;28;20049;-62
2022/04/01 07:27:02;;;;;;;26.08;15.13;;;;;;;;;;6266584;28;20072;-59
2022/04/01 07:30:04;;;;;;;33.65;16.42;;;;;;;;;;6263318;28;20057;-60
2022/04/01 07:33:04;;;;;;;29.38;16.20;;;;;;;;;;6263129;28;20570;-61
2022/04/01 07:36:05;;;;;;;30.70;16.27;;;;;;;;;;6263066;28;20051;-62
2022/04/01 07:39:05;;;;;;;28.00;16.52;;;;;;;;;;6264467;28;20049;-62
2022/04/01 07:42:07;;;;;;;36.10;19.50;;;;;;;;;;6259328;28;20060;-62
2022/04/01 07:45:08;;;;;;;38.38;21.35;;;;;;;;;;6255731;28;20132;-62
2022/04/01 07:48:09;;;;;;;38.40;19.57;;;;;;;;;;6263471;28;20060;-61
2022/04/01 07:51:09;;;;;;;40.60;20.63;;;;;;;;;;6244290;28;20045;-61
2022/04/01 07:54:11;;;;;;;36.45;19.85;;;;;;;;;;6251547;28;20048;-61
2022/04/01 07:57:13;;;;;;;36.90;19.17;;;;;;;;;;6263149;28;20131;-60
2022/04/01 08:00:16;;;;;;;33.85;18.13;;;;;;;;;;6264119;28;20427;-61
2022/04/01 08:03:16;;;;;;;38.38;18.73;;;;;;;;;;6263160;28;20265;-63
2022/04/01 08:06:17;;;;;;;34.75;18.65;;;;;;;;;;6259560;28;20630;-59
2022/04/01 08:09:18;;;;;;;35.10;18.70;;;;;;;;;;6266448;28;20048;-63
2022/04/01 08:12:19;;;;;;;33.33;18.15;;;;;;;;;;6264845;28;20496;-63
2022/04/01 08:15:20;;;;;;;34.72;19.10;;;;;;;;;;6259545;28;20045;-63
2022/04/01 08:18:21;;;;;;;26.90;15.05;;;;;;;;;;6263747;28;20056;-62
2022/04/01 08:21:22;;;;;;;30.08;16.27;;;;;;;;;;6258726;28;20091;-62
2022/04/01 08:24:24;;;;;;;31.90;18.38;;;;;;;;;;6254485;28;20530;-62
2022/04/01 08:27:25;;;;;;;32.85;17.83;;;;;;;;;;6264088;28;20052;-61
2022/04/01 08:30:26;;;;;;;29.45;16.73;;;;;;;;;;6259071;28;20049;-62
2022/04/01 08:33:26;;;;;;;26.48;15.50;;;;;;;;;;6264809;28;20087;-62
2022/04/01 08:36:27;;;;;;;31.63;16.48;;;;;;;;;;6261341;28;20045;-61
2022/04/01 08:39:28;;;;;;;29.08;17.42;;;;;;;;;;6265683;28;20134;-62
2022/04/01 08:42:29;;;;;;;30.58;16.85;;;;;;;;;;6265039;28;20122;-62
2022/04/01 08:45:35;;;;;;;35.08;18.73;;;;;;;;;;6260598;28;20057;-62
2022/04/01 08:48:37;;;;;;;31.30;16.65;;;;;;;;;;6255640;28;20056;-62
2022/04/01 08:51:39;;;;;;;32.75;17.75;;;;;;;;;;6259286;28;20135;-62
2022/04/01 08:54:40;;;;;;;34.15;17.30;;;;;;;;;;6262149;28;20592;-61
2022/04/01 08:57:43;;;;;;;31.00;16.20;;;;;;;;;;6264014;28;20116;-62
2022/04/01 09:00:44;;;;;;;28.05;14.70;;;;;;;;;;6263871;28;20166;-62
2022/04/01 09:03:44;;;;;;;26.45;15.73;;;;;;;;;;6264055;28;20518;-62
2022/04/01 09:06:45;;;;;;;29.40;16.52;;;;;;;;;;6261070;28;20049;-61
2022/04/01 09:09:46;;;;;;;33.65;17.98;;;;;;;;;;6265083;28;20132;-63
2022/04/01 09:12:51;;;;;;;33.80;17.75;;;;;;;;;;6261757;28;20059;-61
2022/04/01 09:15:52;;;;;;;31.05;15.35;;;;;;;;;;6263038;28;20514;-62
2022/04/01 09:18:55;;;;;;;29.88;15.57;;;;;;;;;;6256566;28;20044;-62
2022/04/01 09:21:55;;;;;;;26.95;15.23;;;;;;;;;;6260718;28;20609;-62
2022/04/01 09:25:05;;;;;;;34.28;16.20;;;;;;;;;;6265236;28;20048;-62
2022/04/01 09:28:06;;;;;;;44.65;19.92;;;;;;;;;;6262838;28;20099;-62
2022/04/01 09:31:15;;;;;;;39.50;20.25;;;;;;;;;;6262870;28;20451;-63
2022/04/01 09:34:15;;;;;;;38.85;18.50;;;;;;;;;;6259336;28;20041;-62
2022/04/01 09:37:16;;;;;;;33.25;17.98;;;;;;;;;;6260564;28;20106;-62
2022/04/01 09:40:21;;;;;;;36.28;17.90;;;;;;;;;;6264784;28;20554;-62
2022/04/01 09:43:23;;;;;;;28.95;15.85;;;;;;;;;;6260935;28;20139;-62
2022/04/01 09:46:26;;;;;;;32.20;16.58;;;;;;;;;;6263311;28;20508;-62
2022/04/01 09:49:40;;;;;;;31.92;15.73;;;;;;;;;;6262763;28;20045;-62
2022/04/01 09:52:42;;;;;;;29.80;16.63;;;;;;;;;;6265026;28;20488;-62
2022/04/01 09:55:46;;;;;;;34.20;18.10;;;;;;;;;;6251916;28;20522;-62
2022/04/01 09:58:47;;;;;;;28.70;15.80;;;;;;;;;;6259736;28;20386;-61
2022/04/01 10:01:48;;;;;;;26.05;14.20;;;;;;;;;;6262769;28;20132;-62
2022/04/01 10:04:49;;;;;;;23.40;13.77;;;;;;;;;;6256958;28;20054;-62
2022/04/01 10:07:50;;;;;;;27.02;15.15;;;;;;;;;;6260714;28;20080;-62
2022/04/01 10:10:51;;;;;;;28.63;15.02;;;;;;;;;;6258190;28;20059;-62
2022/04/01 10:13:54;;;;;;;29.55;15.73;;;;;;;;;;6254655;28;20053;-62
2022/04/01 10:16:56;;;;;;;32.15;16.25;;;;;;;;;;6256419;28;20041;-62
2022/04/01 10:20:00;;;;;;;33.72;18.25;;;;;;;;;;6255335;28;20908;-61
2022/04/01 10:23:10;;;;;;;37.00;18.35;;;;;;;;;;6254301;28;20068;-61
2022/04/01 10:26:15;;;;;;;35.08;18.23;;;;;;;;;;6257082;28;20036;-59
2022/04/01 10:29:16;;;;;;;30.70;17.83;;;;;;;;;;6261681;28;20400;-62
2022/04/01 10:32:34;;;;;;;35.40;18.38;;;;;;;;;;6262869;28;20064;-62
2022/04/01 10:35:38;;;;;;;30.27;16.08;;;;;;;;;;6262374;28;20363;-62
2022/04/01 10:38:38;;;;;;;31.98;15.32;;;;;;;;;;6262052;28;20056;-62
2022/04/01 10:41:39;;;;;;;25.80;14.23;;;;;;;;;;6259828;28;20513;-61
2022/04/01 10:44:54;;;;;;;24.15;12.70;;;;;;;;;;6257647;28;20056;-60
2022/04/01 10:51:39;;;;;;;31.92;16.08;;;;;;;;;;6260981;28;20136;-62
2022/04/01 10:54:44;;;;;;;30.90;15.38;;;;;;;;;;6260268;28;20056;-62
2022/04/01 10:57:47;;;;;;;30.30;15.48;;;;;;;;;;6259615;28;20083;-62
2022/04/01 11:00:52;;;;;;;41.47;20.63;;;;;;;;;;6254923;28;20056;-62
2022/04/01 11:03:53;;;;;;;33.42;16.98;;;;;;;;;;6251004;28;20065;-62
2022/04/01 11:07:12;;;;;;;34.15;18.60;;;;;;;;;;6256654;28;20160;-62
2022/04/01 11:10:24;;;;;;;36.05;19.05;;;;;;;;;;6261284;28;20048;-63
2022/04/01 11:13:29;;;;;;;37.25;19.05;;;;;;;;;;6260447;28;20049;-60
2022/04/01 11:16:45;;;;;;;33.95;17.52;;;;;;;;;;6265682;28;20098;-60
2022/04/01 11:20:02;;;;;;;38.33;19.60;;;;;;;;;;6252754;28;20114;-61
2022/04/01 11:23:06;;;;;;;32.45;17.17;;;;;;;;;;6263061;28;20049;-61
2022/04/01 11:26:06;;;;;;;37.13;17.38;;;;;;;;;;6262569;28;20068;-60
2022/04/01 11:29:19;;;;;;;31.30;15.75;;;;;;;;;;6258960;28;20057;-63
2022/04/01 11:32:20;;;;;;;33.28;16.13;;;;;;;;;;6258690;28;20049;-62
2022/04/01 11:35:23;;;;;;;33.15;17.60;;;;;;;;;;6256636;28;20037;-59
2022/04/01 11:38:25;;;;;;;29.52;15.40;;;;;;;;;;6259475;28;21108;-63
2022/04/01 11:41:26;;;;;;;31.10;15.52;;;;;;;;;;6265496;28;20078;-62
2022/04/01 11:44:27;;;;;;;35.92;17.33;;;;;;;;;;6266862;28;20480;-63
2022/04/01 11:47:37;;;;;;;37.05;18.45;;;;;;;;;;6267056;28;20057;-62
2022/04/01 11:50:41;;;;;;;46.47;21.05;;;;;;;;;;6264305;28;20052;-63
2022/04/01 11:53:51;;;;;;;32.45;17.25;;;;;;;;;;6264986;28;20049;-63
2022/04/01 11:56:53;;;;;;;33.90;17.45;;;;;;;;;;6266108;28;20167;-61
2022/04/01 11:59:54;;;;;;;34.63;15.88;;;;;;;;;;6266600;28;20102;-62
2022/04/01 12:02:54;;;;;;;35.63;17.40;;;;;;;;;;6267258;28;20124;-62
2022/04/01 12:08:41;;;;;;;38.40;17.40;;;;;;;;;;6265512;28;21070;-62
2022/04/01 12:09:15;;;;;;;38.03;18.17;;;;;;;;;;6263571;28;20535;-62
2022/04/01 12:12:22;;;;;;;34.17;17.58;;;;;;;;;;6264351;28;20045;-62
2022/04/01 12:15:42;;;;;;;43.45;19.35;;;;;;;;;;6257548;28;20084;-61
2022/04/01 12:18:48;;;;;;;39.85;19.98;;;;;;;;;;6263193;28;20041;-62
2022/04/01 12:21:53;;;;;;;56.17;21.90;;;;;;;;;;6268102;28;20060;-61
2022/04/01 12:24:54;;;;;;;53.22;21.80;;;;;;;;;;6269558;28;20041;-62
2022/04/01 12:27:56;;;;;;;36.13;18.55;;;;;;;;;;6265321;28;20091;-61
2022/04/01 12:30:57;;;;;;;36.63;20.08;;;;;;;;;;6263818;28;20049;-63
2022/04/01 12:33:58;;;;;;;34.40;18.17;;;;;;;;;;6265882;28;20482;-62
2022/04/01 12:37:02;;;;;;;39.20;20.45;;;;;;;;;;6265368;28;20086;-62
2022/04/01 12:40:08;;;;;;;55.90;23.20;;;;;;;;;;6264284;28;20069;-62
2022/04/01 12:43:26;;;;;;;46.55;21.70;;;;;;;;;;6266354;28;20037;-60
2022/04/01 12:46:32;;;;;;;40.00;18.33;;;;;;;;;;6266062;28;20349;-63
2022/04/01 12:49:34;;;;;;;41.70;19.35;;;;;;;;;;6261113;28;20449;-62
2022/04/01 12:52:35;;;;;;;51.08;22.13;;;;;;;;;;6263478;28;20053;-61
2022/04/01 12:55:36;;;;;;;41.63;19.95;;;;;;;;;;6265998;28;20049;-60
2022/04/01 12:58:54;;;;;;;49.25;20.05;;;;;;;;;;6264284;28;20045;-61
2022/04/01 13:02:06;;;;;;;47.72;20.48;;;;;;;;;;6265179;28;20072;-61
2022/04/01 13:05:12;;;;;;;43.30;19.20;;;;;;;;;;6263234;28;20053;-61
2022/04/01 13:08:30;;;;;;;38.03;18.10;;;;;;;;;;6260649;28;20044;-62
2022/04/01 13:11:37;;;;;;;43.65;20.08;;;;;;;;;;6260944;28;20056;-62
2022/04/01 13:14:38;;;;;;;50.58;21.65;;;;;;;;;;6263270;28;20073;-63
2022/04/01 13:17:50;;;;;;;55.80;22.30;;;;;;;;;;6266437;28;20048;-62
2022/04/01 13:20:50;;;;;;;59.77;23.20;;;;;;;;;;6258890;28;20059;-62
2022/04/01 13:23:51;;;;;;;50.85;20.50;;;;;;;;;;6260786;28;20499;-63
2022/04/01 13:26:53;;;;;;;45.78;21.10;;;;;;;;;;6262659;28;20492;-60
2022/04/01 13:29:54;;;;;;;44.60;21.77;;;;;;;;;;6260705;28;20049;-62
2022/04/01 13:32:56;;;;;;;40.97;20.88;;;;;;;;;;6264596;28;20049;-62
2022/04/01 13:35:57;;;;;;;37.53;19.48;;;;;;;;;;6266653;28;20396;-62
2022/04/01 13:38:58;;;;;;;44.05;20.42;;;;;;;;;;6261711;28;20048;-62
2022/04/01 13:41:59;;;;;;;35.83;18.23;;;;;;;;;;6266315;28;20055;-62
2022/04/01 13:44:59;;;;;;;37.72;18.27;;;;;;;;;;6259337;28;20113;-62
2022/04/01 13:48:00;;;;;;;34.55;16.92;;;;;;;;;;6265739;28;20049;-62
2022/04/01 13:51:02;;;;;;;35.50;19.23;;;;;;;;;;6264811;28;20045;-62
2022/04/01 13:54:03;;;;;;;38.35;18.17;;;;;;;;;;6264960;28;20041;-72
2022/04/01 13:57:04;;;;;;;43.38;19.52;;;;;;;;;;6265600;28;20466;-61
2022/04/01 14:00:05;;;;;;;36.53;18.65;;;;;;;;;;6266437;28;20123;-62
2022/04/01 14:03:07;;;;;;;37.47;17.75;;;;;;;;;;6264947;28;20079;-63
2022/04/01 14:06:08;;;;;;;30.50;15.93;;;;;;;;;;6265911;28;20049;-62
2022/04/01 14:09:09;;;;;;;36.55;18.02;;;;;;;;;;6264089;28;20041;-60
2022/04/01 14:12:10;;;;;;;38.05;19.00;;;;;;;;;;6264487;28;20140;-60
2022/04/01 14:15:11;;;;;;;35.60;18.93;;;;;;;;;;6279517;28;20136;-60
2022/04/01 14:18:12;;;;;;;36.03;18.92;;;;;;;;;;6265663;28;20053;-60
2022/04/01 14:21:13;;;;;;;38.83;18.25;;;;;;;;;;6256234;28;20060;-61
2022/04/01 14:24:14;;;;;;;29.42;15.88;;;;;;;;;;6264745;28;20041;-61
2022/04/01 14:27:15;;;;;;;34.42;18.10;;;;;;;;;;6265082;28;20400;-60
2022/04/01 14:30:18;;;;;;;31.58;15.93;;;;;;;;;;6264596;28;20601;-60
2022/04/01 14:33:18;;;;;;;28.55;15.77;;;;;;;;;;6262947;28;20151;-62
2022/04/01 14:36:19;;;;;;;40.08;18.10;;;;;;;;;;6266396;28;20469;-60
2022/04/01 14:39:21;;;;;;;38.58;20.00;;;;;;;;;;6263261;28;20135;-59
2022/04/01 14:42:21;;;;;;;51.23;23.17;;;;;;;;;;6263582;28;20495;-59
2022/04/01 14:45:22;;;;;;;45.20;19.00;;;;;;;;;;6265674;28;20069;-62
2022/04/01 14:48:23;;;;;;;44.72;21.30;;;;;;;;;;6263633;28;20056;-62
2022/04/01 14:51:23;;;;;;;40.72;20.55;;;;;;;;;;6268889;28;20052;-62
2022/04/01 14:54:24;;;;;;;42.28;22.50;;;;;;;;;;6269971;28;20556;-62
2022/04/01 14:57:25;;;;;;;48.65;25.05;;;;;;;;;;6269735;28;20176;-62
2022/04/01 15:00:25;;;;;;;49.30;25.52;;;;;;;;;;6265113;28;20882;-60
2022/04/01 15:03:26;;;;;;;36.58;18.00;;;;;;;;;;6263247;28;20074;-62
2022/04/01 15:06:27;;;;;;;42.13;21.80;;;;;;;;;;6268400;28;20092;-62
2022/04/01 15:09:30;;;;;;;35.58;18.70;;;;;;;;;;6269011;28;20059;-71
2022/04/01 15:12:31;;;;;;;30.15;14.52;;;;;;;;;;6262395;28;20048;-62
2022/04/01 15:15:32;;;;;;;33.28;15.52;;;;;;;;;;6257269;28;20049;-62
2022/04/01 15:18:33;;;;;;;38.97;18.10;;;;;;;;;;6251816;28;20088;-61
2022/04/01 15:21:35;;;;;;;39.88;20.58;;;;;;;;;;6247837;28;20045;-60
2022/04/01 15:24:37;;;;;;;36.10;19.52;;;;;;;;;;6248308;28;20045;-61
2022/04/01 15:27:39;;;;;;;34.63;18.70;;;;;;;;;;6247830;28;20061;-62
2022/04/01 15:30:40;;;;;;;31.88;17.73;;;;;;;;;;6249122;28;20041;-61
2022/04/01 15:33:42;;;;;;;32.58;17.10;;;;;;;;;;6246569;28;20080;-61
2022/04/01 15:36:46;;;;;;;34.83;18.55;;;;;;;;;;6244511;28;20053;-61
2022/04/01 15:39:50;;;;;;;34.88;17.88;;;;;;;;;;6244172;28;20152;-62
2022/04/01 15:42:52;;;;;;;31.33;16.92;;;;;;;;;;6241924;28;20057;-62
2022/04/01 15:45:53;;;;;;;36.88;19.17;;;;;;;;;;6248017;28;20629;-61
2022/04/01 15:48:54;;;;;;;29.88;16.05;;;;;;;;;;6268932;28;20058;-63
2022/04/01 15:51:55;;;;;;;22.55;13.25;;;;;;;;;;6247710;28;20053;-65
2022/04/01 15:54:56;;;;;;;28.73;14.95;;;;;;;;;;6241110;28;20086;-62
2022/04/01 15:58:00;;;;;;;31.98;17.67;;;;;;;;;;6248253;28;20053;-63
2022/04/01 16:01:01;;;;;;;32.00;17.05;;;;;;;;;;6244485;28;20401;-63
2022/04/01 16:04:08;;;;;;;29.60;15.30;;;;;;;;;;6247285;28;20064;-62
2022/04/01 16:07:09;;;;;;;28.80;16.23;;;;;;;;;;6242980;28;20057;-62
2022/04/01 16:10:12;;;;;;;26.20;14.70;;;;;;;;;;6241977;28;20045;-63
2022/04/01 16:13:15;;;;;;;;;;;;;;;;;;6249465;28;20053;-63
2022/04/01 16:16:16;;;;;;;27.58;14.85;;;;;;;;;;6245174;28;19962;-62
2022/04/01 16:19:18;;;;;;;33.45;17.08;;;;;;;;;;6244945;28;20520;-62
2022/04/01 16:22:19;;;;;;;33.28;17.13;;;;;;;;;;6246407;28;20052;-62
2022/04/01 16:25:21;;;;;;;34.15;17.33;;;;;;;;;;6243823;28;20053;-61
2022/04/01 16:28:23;;;;;;;32.20;18.50;;;;;;;;;;6244090;28;20083;-62
2022/04/01 16:31:24;;;;;;;33.30;17.10;;;;;;;;;;6246169;28;20057;-62
2022/04/01 16:34:25;;;;;;;28.63;15.68;;;;;;;;;;6240224;28;20057;-62
2022/04/01 16:37:25;;;;;;;31.45;17.15;;;;;;;;;;6242403;28;20148;-61
2022/04/01 16:40:26;;;;;;;27.58;15.60;;;;;;;;;;6243674;28;20048;-64
2022/04/01 16:43:27;;;;;;;34.80;18.65;;;;;;;;;;6243452;28;20045;-63
2022/04/01 16:46:28;;;;;;;43.78;20.50;;;;;;;;;;6242408;28;20049;-62
2022/04/01 16:49:28;;;;;;;45.45;20.05;;;;;;;;;;6244227;28;20055;-62
2022/04/01 16:52:29;;;;;;;32.38;17.92;;;;;;;;;;6245922;28;20065;-63
2022/04/01 16:55:29;;;;;;;33.00;18.75;;;;;;;;;;6240427;28;20061;-63
2022/04/01 16:58:30;;;;;;;29.85;16.75;;;;;;;;;;6247669;28;20049;-62
2022/04/01 17:01:31;;;;;;;33.03;17.17;;;;;;;;;;6246527;28;20128;-62
2022/04/01 17:04:32;;;;;;;33.60;17.73;;;;;;;;;;6244411;28;20057;-65
2022/04/01 17:14:11;;;;;;;34.83;18.08;;;;;;;;;;6242052;28;20386;-63
2022/04/01 17:17:13;;;;;;;28.38;15.13;;;;;;;;;;6235753;28;20041;-63
2022/04/01 17:20:19;;;;;;;32.15;15.48;;;;;;;;;;6238764;28;20049;-63
2022/04/01 17:23:20;;;;;;;31.20;17.67;;;;;;;;;;6242011;28;20199;-63
2022/04/01 17:26:21;;;;;;;32.88;18.20;;;;;;;;;;6236839;28;20488;-62
2022/04/01 17:29:22;;;;;;;36.92;20.05;;;;;;;;;;6244363;28;20056;-62
2022/04/01 17:32:25;;;;;;;40.40;21.48;;;;;;;;;;6245199;28;20584;-62
2022/04/01 17:35:34;;;;;;;41.83;21.75;;;;;;;;;;6238085;28;20428;-61
2022/04/01 17:38:37;;;;;;;34.17;19.42;;;;;;;;;;6242852;28;20042;-61
2022/04/01 17:41:40;;;;;;;46.42;25.23;;;;;;;;;;6244539;28;20057;-61
2022/04/01 17:44:42;;;;;;;34.67;18.70;;;;;;;;;;6243354;28;20076;-61
2022/04/01 17:47:43;;;;;;;37.65;19.55;;;;;;;;;;6239485;28;20053;-61
2022/04/01 17:50:44;;;;;;;35.30;19.08;;;;;;;;;;6240886;28;20055;-61
2022/04/01 17:53:45;;;;;;;34.78;19.08;;;;;;;;;;6243402;28;21813;-61
2022/04/01 17:56:52;;;;;;;34.03;18.42;;;;;;;;;;6237451;28;20052;-61
2022/04/01 17:59:59;;;;;;;60.08;26.50;;;;;;;;;;6238634;28;20421;-61
2022/04/01 18:03:05;;;;;;;45.67;23.42;;;;;;;;;;6239970;28;20045;-60
2022/04/01 18:06:08;;;;;;;45.80;24.25;;;;;;;;;;6240267;28;20488;-61